sensor_id;sensor_type;location;lat;lon;timestamp;temperature;humidity
47521;DHT22;32291;52.010;4.446;2024-01-27T00:00:19;3.10;99.90
47521;DHT22;32291;52.010;4.446;2024-01-27T00:01:26;3.00;99.90
47521;DHT22;32291;52.010;4.446;2024-01-27T00:02:33;3.00;99.90
47521;DHT22;32291;52.010;4.446;2024-01-27T00:03:40;3.00;99.90
47521;DHT22;32291;52.010;4.446;2024-01-27T00:04:47;3.00;99.90
47521;DHT22;32291;52.010;4.446;2024-01-27T00:05:55;3.00;99.90
47521;DHT22;32291;52.010;4.446;2024-01-27T00:07:01;3.10;99.90
47521;DHT22;32291;52.010;4.446;2024-01-27T00:08:04;3.10;99.90
47521;DHT22;32291;52.010;4.446;2024-01-27T00:09:10;3.10;99.90
47521;DHT22;32291;52.010;4.446;2024-01-27T00:10:17;3.10;99.90
47521;DHT22;32291;52.010;4.446;2024-01-27T00:11:24;3.10;99.90
47521;DHT22;32291;52.010;4.446;2024-01-27T00:12:31;3.10;99.90
47521;DHT22;32291;52.010;4.446;2024-01-27T00:13:38;3.10;99.90
47521;DHT22;32291;52.010;4.446;2024-01-27T00:14:45;3.10;99.90
47521;DHT22;32291;52.010;4.446;2024-01-27T00:15:47;3.10;99.90
47521;DHT22;32291;52.010;4.446;2024-01-27T00:16:54;3.10;99.90
47521;DHT22;32291;52.010;4.446;2024-01-27T00:18:01;3.10;99.90
47521;DHT22;32291;52.010;4.446;2024-01-27T00:19:04;3.10;99.90
47521;DHT22;32291;52.010;4.446;2024-01-27T00:20:11;3.10;99.90
47521;DHT22;32291;52.010;4.446;2024-01-27T00:21:13;3.10;99.90
47521;DHT22;32291;52.010;4.446;2024-01-27T00:22:15;3.10;99.90
47521;DHT22;32291;52.010;4.446;2024-01-27T00:23:18;3.10;99.90
47521;DHT22;32291;52.010;4.446;2024-01-27T00:24:25;3.10;99.90
47521;DHT22;32291;52.010;4.446;2024-01-27T00:25:32;3.00;99.90
47521;DHT22;32291;52.010;4.446;2024-01-27T00:26:34;3.10;99.90
47521;DHT22;32291;52.010;4.446;2024-01-27T00:27:36;3.10;99.90
47521;DHT22;32291;52.010;4.446;2024-01-27T00:28:46;3.10;99.90
47521;DHT22;32291;52.010;4.446;2024-01-27T00:29:53;3.10;99.90
47521;DHT22;32291;52.010;4.446;2024-01-27T00:30:59;3.20;99.90
47521;DHT22;32291;52.010;4.446;2024-01-27T00:32:02;3.10;99.90
47521;DHT22;32291;52.010;4.446;2024-01-27T00:33:09;3.20;99.90
47521;DHT22;32291;52.010;4.446;2024-01-27T00:34:15;3.20;99.90
47521;DHT22;32291;52.010;4.446;2024-01-27T00:35:23;3.20;99.90
47521;DHT22;32291;52.010;4.446;2024-01-27T00:36:30;3.20;99.90
47521;DHT22;32291;52.010;4.446;2024-01-27T00:37:32;3.20;99.90
47521;DHT22;32291;52.010;4.446;2024-01-27T00:38:39;3.20;99.90
47521;DHT22;32291;52.010;4.446;2024-01-27T00:39:45;3.30;99.90
47521;DHT22;32291;52.010;4.446;2024-01-27T00:40:52;3.20;99.90
47521;DHT22;32291;52.010;4.446;2024-01-27T00:41:59;3.20;99.90
47521;DHT22;32291;52.010;4.446;2024-01-27T00:43:09;3.30;99.90
47521;DHT22;32291;52.010;4.446;2024-01-27T00:44:16;3.20;99.90
47521;DHT22;32291;52.010;4.446;2024-01-27T00:45:23;3.20;99.90
47521;DHT22;32291;52.010;4.446;2024-01-27T00:46:30;3.30;99.90
47521;DHT22;32291;52.010;4.446;2024-01-27T00:47:37;3.30;99.90
47521;DHT22;32291;52.010;4.446;2024-01-27T00:48:44;3.30;99.90
47521;DHT22;32291;52.010;4.446;2024-01-27T00:49:52;3.30;99.90
47521;DHT22;32291;52.010;4.446;2024-01-27T00:51:00;3.20;99.90
47521;DHT22;32291;52.010;4.446;2024-01-27T00:52:07;3.20;99.90
47521;DHT22;32291;52.010;4.446;2024-01-27T00:53:14;3.20;99.90
47521;DHT22;32291;52.010;4.446;2024-01-27T00:54:20;3.20;99.90
47521;DHT22;32291;52.010;4.446;2024-01-27T00:55:27;3.20;99.90
47521;DHT22;32291;52.010;4.446;2024-01-27T00:56:34;3.20;99.90
47521;DHT22;32291;52.010;4.446;2024-01-27T00:57:41;3.30;99.90
47521;DHT22;32291;52.010;4.446;2024-01-27T00:58:49;3.30;99.90
47521;DHT22;32291;52.010;4.446;2024-01-27T00:59:56;3.30;99.90
47521;DHT22;32291;52.010;4.446;2024-01-27T01:01:03;3.30;99.90
47521;DHT22;32291;52.010;4.446;2024-01-27T01:02:10;3.30;99.90
47521;DHT22;32291;52.010;4.446;2024-01-27T01:03:17;3.30;99.90
47521;DHT22;32291;52.010;4.446;2024-01-27T01:04:23;3.30;99.90
47521;DHT22;32291;52.010;4.446;2024-01-27T01:05:26;3.30;99.90
47521;DHT22;32291;52.010;4.446;2024-01-27T01:06:33;3.20;99.90
47521;DHT22;32291;52.010;4.446;2024-01-27T01:07:35;3.20;99.90
47521;DHT22;32291;52.010;4.446;2024-01-27T01:08:42;3.30;99.90
47521;DHT22;32291;52.010;4.446;2024-01-27T01:09:49;3.20;99.90
47521;DHT22;32291;52.010;4.446;2024-01-27T01:10:56;3.30;99.90
47521;DHT22;32291;52.010;4.446;2024-01-27T01:12:03;3.30;99.90
47521;DHT22;32291;52.010;4.446;2024-01-27T01:13:11;3.30;99.90
47521;DHT22;32291;52.010;4.446;2024-01-27T01:14:17;3.40;99.90
47521;DHT22;32291;52.010;4.446;2024-01-27T01:15:24;3.40;99.90
47521;DHT22;32291;52.010;4.446;2024-01-27T01:16:31;3.40;99.90
47521;DHT22;32291;52.010;4.446;2024-01-27T01:17:38;3.40;99.90
47521;DHT22;32291;52.010;4.446;2024-01-27T01:18:45;3.40;99.90
47521;DHT22;32291;52.010;4.446;2024-01-27T01:19:51;3.40;99.90
47521;DHT22;32291;52.010;4.446;2024-01-27T01:20:58;3.40;99.90
47521;DHT22;32291;52.010;4.446;2024-01-27T01:22:05;3.50;99.90
47521;DHT22;32291;52.010;4.446;2024-01-27T01:23:12;3.50;99.90
47521;DHT22;32291;52.010;4.446;2024-01-27T01:24:19;3.40;99.90
47521;DHT22;32291;52.010;4.446;2024-01-27T01:25:26;3.40;99.90
47521;DHT22;32291;52.010;4.446;2024-01-27T01:26:33;3.50;99.90
47521;DHT22;32291;52.010;4.446;2024-01-27T01:27:40;3.40;99.90
47521;DHT22;32291;52.010;4.446;2024-01-27T01:28:46;3.40;99.90
47521;DHT22;32291;52.010;4.446;2024-01-27T01:29:53;3.40;99.90
47521;DHT22;32291;52.010;4.446;2024-01-27T01:31:00;3.40;99.90
47521;DHT22;32291;52.010;4.446;2024-01-27T01:32:10;3.40;99.90
47521;DHT22;32291;52.010;4.446;2024-01-27T01:33:17;3.40;99.90
47521;DHT22;32291;52.010;4.446;2024-01-27T01:34:24;3.40;99.90
47521;DHT22;32291;52.010;4.446;2024-01-27T01:35:26;3.40;99.90
47521;DHT22;32291;52.010;4.446;2024-01-27T01:36:33;3.30;99.90
47521;DHT22;32291;52.010;4.446;2024-01-27T01:37:40;3.30;99.90
47521;DHT22;32291;52.010;4.446;2024-01-27T01:38:46;3.30;99.90
47521;DHT22;32291;52.010;4.446;2024-01-27T01:39:49;3.30;99.90
47521;DHT22;32291;52.010;4.446;2024-01-27T01:40:51;3.30;99.90
47521;DHT22;32291;52.010;4.446;2024-01-27T01:41:58;3.30;99.90
47521;DHT22;32291;52.010;4.446;2024-01-27T01:43:12;3.20;99.90
47521;DHT22;32291;52.010;4.446;2024-01-27T01:44:19;3.20;99.90
47521;DHT22;32291;52.010;4.446;2024-01-27T01:45:25;3.20;99.90
47521;DHT22;32291;52.010;4.446;2024-01-27T01:46:33;3.20;99.90
47521;DHT22;32291;52.010;4.446;2024-01-27T01:47:35;3.20;99.90
47521;DHT22;32291;52.010;4.446;2024-01-27T01:48:45;3.20;99.90
47521;DHT22;32291;52.010;4.446;2024-01-27T01:49:52;3.20;99.90
47521;DHT22;32291;52.010;4.446;2024-01-27T01:51:00;3.20;99.90
47521;DHT22;32291;52.010;4.446;2024-01-27T01:52:02;3.20;99.90
47521;DHT22;32291;52.010;4.446;2024-01-27T01:53:09;3.20;99.90
47521;DHT22;32291;52.010;4.446;2024-01-27T01:54:16;3.20;99.90
47521;DHT22;32291;52.010;4.446;2024-01-27T01:55:19;3.10;99.90
47521;DHT22;32291;52.010;4.446;2024-01-27T01:56:21;3.10;99.90
47521;DHT22;32291;52.010;4.446;2024-01-27T01:57:28;3.20;99.90
47521;DHT22;32291;52.010;4.446;2024-01-27T01:58:35;3.20;99.90
47521;DHT22;32291;52.010;4.446;2024-01-27T01:59:46;3.20;99.90
47521;DHT22;32291;52.010;4.446;2024-01-27T02:00:53;3.10;99.90
47521;DHT22;32291;52.010;4.446;2024-01-27T02:02:00;3.10;99.90
47521;DHT22;32291;52.010;4.446;2024-01-27T02:03:02;3.00;99.90
47521;DHT22;32291;52.010;4.446;2024-01-27T02:04:09;3.00;99.90
47521;DHT22;32291;52.010;4.446;2024-01-27T02:05:16;3.00;99.90
47521;DHT22;32291;52.010;4.446;2024-01-27T02:06:18;3.00;99.90
47521;DHT22;32291;52.010;4.446;2024-01-27T02:07:25;3.10;99.90
47521;DHT22;32291;52.010;4.446;2024-01-27T02:08:32;3.10;99.90
47521;DHT22;32291;52.010;4.446;2024-01-27T02:09:39;3.10;99.90
47521;DHT22;32291;52.010;4.446;2024-01-27T02:10:46;3.10;99.90
47521;DHT22;32291;52.010;4.446;2024-01-27T02:11:52;3.20;99.90
47521;DHT22;32291;52.010;4.446;2024-01-27T02:12:59;3.20;99.90
47521;DHT22;32291;52.010;4.446;2024-01-27T02:14:06;3.20;99.90
47521;DHT22;32291;52.010;4.446;2024-01-27T02:15:16;3.10;99.90
47521;DHT22;32291;52.010;4.446;2024-01-27T02:16:23;3.20;99.90
47521;DHT22;32291;52.010;4.446;2024-01-27T02:17:25;3.20;99.90
47521;DHT22;32291;52.010;4.446;2024-01-27T02:18:31;3.20;99.90
47521;DHT22;32291;52.010;4.446;2024-01-27T02:19:34;3.10;99.90
47521;DHT22;32291;52.010;4.446;2024-01-27T02:20:41;3.10;99.90
47521;DHT22;32291;52.010;4.446;2024-01-27T02:21:48;3.20;99.90
47521;DHT22;32291;52.010;4.446;2024-01-27T02:22:54;3.10;99.90
47521;DHT22;32291;52.010;4.446;2024-01-27T02:24:02;3.10;99.90
47521;DHT22;32291;52.010;4.446;2024-01-27T02:25:09;3.10;99.90
47521;DHT22;32291;52.010;4.446;2024-01-27T02:26:16;3.10;99.90
47521;DHT22;32291;52.010;4.446;2024-01-27T02:27:18;3.30;99.90
47521;DHT22;32291;52.010;4.446;2024-01-27T02:28:25;3.10;99.90
47521;DHT22;32291;52.010;4.446;2024-01-27T02:29:32;3.20;99.90
47521;DHT22;32291;52.010;4.446;2024-01-27T02:30:34;3.20;99.90
47521;DHT22;32291;52.010;4.446;2024-01-27T02:31:36;3.20;99.90
47521;DHT22;32291;52.010;4.446;2024-01-27T02:32:43;3.20;99.90
47521;DHT22;32291;52.010;4.446;2024-01-27T02:33:50;3.20;99.90
47521;DHT22;32291;52.010;4.446;2024-01-27T02:34:52;3.30;99.90
47521;DHT22;32291;52.010;4.446;2024-01-27T02:35:59;3.30;99.90
47521;DHT22;32291;52.010;4.446;2024-01-27T02:37:06;3.30;99.90
47521;DHT22;32291;52.010;4.446;2024-01-27T02:38:08;3.30;99.90
47521;DHT22;32291;52.010;4.446;2024-01-27T02:39:15;3.30;99.90
47521;DHT22;32291;52.010;4.446;2024-01-27T02:40:22;3.30;99.90
47521;DHT22;32291;52.010;4.446;2024-01-27T02:41:29;3.30;99.90
47521;DHT22;32291;52.010;4.446;2024-01-27T02:42:37;3.30;99.90
47521;DHT22;32291;52.010;4.446;2024-01-27T02:43:44;3.30;99.90
47521;DHT22;32291;52.010;4.446;2024-01-27T02:44:51;3.30;99.90
47521;DHT22;32291;52.010;4.446;2024-01-27T02:45:58;3.30;99.90
47521;DHT22;32291;52.010;4.446;2024-01-27T02:47:05;3.30;99.90
47521;DHT22;32291;52.010;4.446;2024-01-27T02:48:11;3.30;99.90
47521;DHT22;32291;52.010;4.446;2024-01-27T02:49:18;3.20;99.90
47521;DHT22;32291;52.010;4.446;2024-01-27T02:50:25;3.30;99.90
47521;DHT22;32291;52.010;4.446;2024-01-27T02:51:27;3.20;99.90
47521;DHT22;32291;52.010;4.446;2024-01-27T02:52:34;3.30;99.90
47521;DHT22;32291;52.010;4.446;2024-01-27T02:53:41;3.30;99.90
47521;DHT22;32291;52.010;4.446;2024-01-27T02:54:48;3.20;99.90
47521;DHT22;32291;52.010;4.446;2024-01-27T02:55:55;3.20;99.90
47521;DHT22;32291;52.010;4.446;2024-01-27T02:56:57;3.20;99.90
47521;DHT22;32291;52.010;4.446;2024-01-27T02:58:04;3.20;99.90
47521;DHT22;32291;52.010;4.446;2024-01-27T02:59:11;3.20;99.90
47521;DHT22;32291;52.010;4.446;2024-01-27T03:00:18;3.20;99.90
47521;DHT22;32291;52.010;4.446;2024-01-27T03:01:25;3.20;99.90
47521;DHT22;32291;52.010;4.446;2024-01-27T03:02:32;3.20;99.90
47521;DHT22;32291;52.010;4.446;2024-01-27T03:03:39;3.10;99.90
47521;DHT22;32291;52.010;4.446;2024-01-27T03:04:47;3.10;99.90
47521;DHT22;32291;52.010;4.446;2024-01-27T03:05:54;3.10;99.90
47521;DHT22;32291;52.010;4.446;2024-01-27T03:07:00;3.10;99.90
47521;DHT22;32291;52.010;4.446;2024-01-27T03:08:07;3.10;99.90
47521;DHT22;32291;52.010;4.446;2024-01-27T03:09:14;3.00;99.90
47521;DHT22;32291;52.010;4.446;2024-01-27T03:10:21;3.00;99.90
47521;DHT22;32291;52.010;4.446;2024-01-27T03:11:28;3.00;99.90
47521;DHT22;32291;52.010;4.446;2024-01-27T03:12:34;2.90;99.90
47521;DHT22;32291;52.010;4.446;2024-01-27T03:13:41;2.90;99.90
47521;DHT22;32291;52.010;4.446;2024-01-27T03:14:52;2.90;99.90
47521;DHT22;32291;52.010;4.446;2024-01-27T03:16:00;2.90;99.90
47521;DHT22;32291;52.010;4.446;2024-01-27T03:17:02;2.80;99.90
47521;DHT22;32291;52.010;4.446;2024-01-27T03:18:04;2.90;99.90
47521;DHT22;32291;52.010;4.446;2024-01-27T03:19:11;2.90;99.90
47521;DHT22;32291;52.010;4.446;2024-01-27T03:20:14;2.90;99.90
47521;DHT22;32291;52.010;4.446;2024-01-27T03:21:21;2.90;99.90
47521;DHT22;32291;52.010;4.446;2024-01-27T03:22:27;2.90;99.90
47521;DHT22;32291;52.010;4.446;2024-01-27T03:23:30;2.90;99.90
47521;DHT22;32291;52.010;4.446;2024-01-27T03:24:36;3.00;99.90
47521;DHT22;32291;52.010;4.446;2024-01-27T03:25:43;2.90;99.90
47521;DHT22;32291;52.010;4.446;2024-01-27T03:26:50;2.90;99.90
47521;DHT22;32291;52.010;4.446;2024-01-27T03:27:57;2.90;99.90
47521;DHT22;32291;52.010;4.446;2024-01-27T03:29:03;2.90;99.90
47521;DHT22;32291;52.010;4.446;2024-01-27T03:30:11;2.90;99.90
47521;DHT22;32291;52.010;4.446;2024-01-27T03:31:13;2.90;99.90
47521;DHT22;32291;52.010;4.446;2024-01-27T03:32:20;2.90;99.90
47521;DHT22;32291;52.010;4.446;2024-01-27T03:33:22;2.90;99.90
47521;DHT22;32291;52.010;4.446;2024-01-27T03:34:29;3.00;99.90
47521;DHT22;32291;52.010;4.446;2024-01-27T03:35:36;2.90;99.90
47521;DHT22;32291;52.010;4.446;2024-01-27T03:36:40;2.90;99.90
47521;DHT22;32291;52.010;4.446;2024-01-27T03:37:42;2.90;99.90
47521;DHT22;32291;52.010;4.446;2024-01-27T03:38:52;2.90;99.90
47521;DHT22;32291;52.010;4.446;2024-01-27T03:40:00;2.90;99.90
47521;DHT22;32291;52.010;4.446;2024-01-27T03:41:07;2.90;99.90
47521;DHT22;32291;52.010;4.446;2024-01-27T03:42:14;3.00;99.90
47521;DHT22;32291;52.010;4.446;2024-01-27T03:43:21;2.90;99.90
47521;DHT22;32291;52.010;4.446;2024-01-27T03:44:28;2.80;99.90
47521;DHT22;32291;52.010;4.446;2024-01-27T03:45:30;2.90;99.90
47521;DHT22;32291;52.010;4.446;2024-01-27T03:46:36;2.80;99.90
47521;DHT22;32291;52.010;4.446;2024-01-27T03:47:40;2.80;99.90
47521;DHT22;32291;52.010;4.446;2024-01-27T03:48:47;2.80;99.90
47521;DHT22;32291;52.010;4.446;2024-01-27T03:49:49;2.80;99.90
47521;DHT22;32291;52.010;4.446;2024-01-27T03:50:56;2.80;99.90
47521;DHT22;32291;52.010;4.446;2024-01-27T03:52:04;2.80;99.90
47521;DHT22;32291;52.010;4.446;2024-01-27T03:53:11;2.70;99.90
47521;DHT22;32291;52.010;4.446;2024-01-27T03:54:18;2.80;99.90
47521;DHT22;32291;52.010;4.446;2024-01-27T03:55:25;2.80;99.90
47521;DHT22;32291;52.010;4.446;2024-01-27T03:56:32;2.80;99.90
47521;DHT22;32291;52.010;4.446;2024-01-27T03:57:39;2.80;99.90
47521;DHT22;32291;52.010;4.446;2024-01-27T03:58:45;2.80;99.90
47521;DHT22;32291;52.010;4.446;2024-01-27T03:59:52;2.80;99.90
47521;DHT22;32291;52.010;4.446;2024-01-27T04:00:59;2.70;99.90
47521;DHT22;32291;52.010;4.446;2024-01-27T04:02:02;2.70;99.90
47521;DHT22;32291;52.010;4.446;2024-01-27T04:03:04;2.60;99.90
47521;DHT22;32291;52.010;4.446;2024-01-27T04:04:12;2.70;99.90
47521;DHT22;32291;52.010;4.446;2024-01-27T04:05:14;2.60;99.90
47521;DHT22;32291;52.010;4.446;2024-01-27T04:06:21;2.60;99.90
47521;DHT22;32291;52.010;4.446;2024-01-27T04:07:28;2.70;99.90
47521;DHT22;32291;52.010;4.446;2024-01-27T04:08:35;2.70;99.90
47521;DHT22;32291;52.010;4.446;2024-01-27T04:09:42;2.70;99.90
47521;DHT22;32291;52.010;4.446;2024-01-27T04:10:52;2.60;99.90
47521;DHT22;32291;52.010;4.446;2024-01-27T04:11:59;2.60;99.90
47521;DHT22;32291;52.010;4.446;2024-01-27T04:13:01;2.70;99.90
47521;DHT22;32291;52.010;4.446;2024-01-27T04:14:08;2.70;99.90
47521;DHT22;32291;52.010;4.446;2024-01-27T04:15:15;2.70;99.90
47521;DHT22;32291;52.010;4.446;2024-01-27T04:16:22;2.60;99.90
47521;DHT22;32291;52.010;4.446;2024-01-27T04:17:24;2.70;99.90
47521;DHT22;32291;52.010;4.446;2024-01-27T04:18:31;2.60;99.90
47521;DHT22;32291;52.010;4.446;2024-01-27T04:19:37;2.60;99.90
47521;DHT22;32291;52.010;4.446;2024-01-27T04:20:44;2.60;99.90
47521;DHT22;32291;52.010;4.446;2024-01-27T04:21:47;2.60;99.90
47521;DHT22;32291;52.010;4.446;2024-01-27T04:22:54;2.60;99.90
47521;DHT22;32291;52.010;4.446;2024-01-27T04:23:56;2.60;99.90
47521;DHT22;32291;52.010;4.446;2024-01-27T04:25:03;2.60;99.90
47521;DHT22;32291;52.010;4.446;2024-01-27T04:26:11;2.50;99.90
47521;DHT22;32291;52.010;4.446;2024-01-27T04:27:18;2.50;99.90
47521;DHT22;32291;52.010;4.446;2024-01-27T04:28:24;2.50;99.90
47521;DHT22;32291;52.010;4.446;2024-01-27T04:29:31;2.50;99.90
47521;DHT22;32291;52.010;4.446;2024-01-27T04:30:38;2.50;99.90
47521;DHT22;32291;52.010;4.446;2024-01-27T04:31:45;2.50;99.90
47521;DHT22;32291;52.010;4.446;2024-01-27T04:32:47;2.40;99.90
47521;DHT22;32291;52.010;4.446;2024-01-27T04:33:56;2.50;99.90
47521;DHT22;32291;52.010;4.446;2024-01-27T04:35:08;2.40;99.90
47521;DHT22;32291;52.010;4.446;2024-01-27T04:36:25;2.40;99.90
47521;DHT22;32291;52.010;4.446;2024-01-27T04:37:38;2.40;99.90
47521;DHT22;32291;52.010;4.446;2024-01-27T04:38:45;2.40;99.90
47521;DHT22;32291;52.010;4.446;2024-01-27T04:39:52;2.40;99.90
47521;DHT22;32291;52.010;4.446;2024-01-27T04:40:58;2.40;99.90
47521;DHT22;32291;52.010;4.446;2024-01-27T04:42:06;2.40;99.90
47521;DHT22;32291;52.010;4.446;2024-01-27T04:43:17;2.40;99.90
47521;DHT22;32291;52.010;4.446;2024-01-27T04:44:19;2.40;99.90
47521;DHT22;32291;52.010;4.446;2024-01-27T04:45:27;2.40;99.90
47521;DHT22;32291;52.010;4.446;2024-01-27T04:46:33;2.40;99.90
47521;DHT22;32291;52.010;4.446;2024-01-27T04:47:41;2.40;99.90
47521;DHT22;32291;52.010;4.446;2024-01-27T04:48:47;2.40;99.90
47521;DHT22;32291;52.010;4.446;2024-01-27T04:49:54;2.40;99.90
47521;DHT22;32291;52.010;4.446;2024-01-27T04:50:56;2.40;99.90
47521;DHT22;32291;52.010;4.446;2024-01-27T04:52:04;2.40;99.90
47521;DHT22;32291;52.010;4.446;2024-01-27T04:53:11;2.50;99.90
47521;DHT22;32291;52.010;4.446;2024-01-27T04:54:17;2.50;99.90
47521;DHT22;32291;52.010;4.446;2024-01-27T04:55:24;2.60;99.90
47521;DHT22;32291;52.010;4.446;2024-01-27T04:56:31;2.50;99.90
47521;DHT22;32291;52.010;4.446;2024-01-27T04:57:38;2.60;99.90
47521;DHT22;32291;52.010;4.446;2024-01-27T04:58:45;2.60;99.90
47521;DHT22;32291;52.010;4.446;2024-01-27T04:59:52;2.60;99.90
47521;DHT22;32291;52.010;4.446;2024-01-27T05:00:59;2.60;99.90
47521;DHT22;32291;52.010;4.446;2024-01-27T05:02:06;2.50;99.90
47521;DHT22;32291;52.010;4.446;2024-01-27T05:03:13;2.60;99.90
47521;DHT22;32291;52.010;4.446;2024-01-27T05:04:20;2.50;99.90
47521;DHT22;32291;52.010;4.446;2024-01-27T05:05:27;2.60;99.90
47521;DHT22;32291;52.010;4.446;2024-01-27T05:06:29;2.50;99.90
47521;DHT22;32291;52.010;4.446;2024-01-27T05:07:37;2.50;99.90
47521;DHT22;32291;52.010;4.446;2024-01-27T05:08:44;2.50;99.90
47521;DHT22;32291;52.010;4.446;2024-01-27T05:09:46;2.50;99.90
47521;DHT22;32291;52.010;4.446;2024-01-27T05:10:53;2.50;99.90
47521;DHT22;32291;52.010;4.446;2024-01-27T05:11:55;2.40;99.90
47521;DHT22;32291;52.010;4.446;2024-01-27T05:13:02;2.40;99.90
47521;DHT22;32291;52.010;4.446;2024-01-27T05:14:05;2.40;99.90
47521;DHT22;32291;52.010;4.446;2024-01-27T05:15:12;2.40;99.90
47521;DHT22;32291;52.010;4.446;2024-01-27T05:16:19;2.30;99.90
47521;DHT22;32291;52.010;4.446;2024-01-27T05:17:26;2.40;99.90
47521;DHT22;32291;52.010;4.446;2024-01-27T05:18:32;2.30;99.90
47521;DHT22;32291;52.010;4.446;2024-01-27T05:19:39;2.30;99.90
47521;DHT22;32291;52.010;4.446;2024-01-27T05:20:41;2.20;99.90
47521;DHT22;32291;52.010;4.446;2024-01-27T05:21:44;2.20;99.90
47521;DHT22;32291;52.010;4.446;2024-01-27T05:22:53;2.20;99.90
47521;DHT22;32291;52.010;4.446;2024-01-27T05:24:00;2.20;99.90
47521;DHT22;32291;52.010;4.446;2024-01-27T05:25:08;2.20;99.90
47521;DHT22;32291;52.010;4.446;2024-01-27T05:26:16;2.20;99.90
47521;DHT22;32291;52.010;4.446;2024-01-27T05:27:23;2.20;99.90
47521;DHT22;32291;52.010;4.446;2024-01-27T05:28:25;2.20;99.90
47521;DHT22;32291;52.010;4.446;2024-01-27T05:29:32;2.20;99.90
47521;DHT22;32291;52.010;4.446;2024-01-27T05:30:39;2.10;99.90
47521;DHT22;32291;52.010;4.446;2024-01-27T05:31:45;2.20;99.90
47521;DHT22;32291;52.010;4.446;2024-01-27T05:32:52;2.20;99.90
47521;DHT22;32291;52.010;4.446;2024-01-27T05:33:59;2.10;99.90
47521;DHT22;32291;52.010;4.446;2024-01-27T05:35:06;2.30;99.90
47521;DHT22;32291;52.010;4.446;2024-01-27T05:36:09;2.20;99.90
47521;DHT22;32291;52.010;4.446;2024-01-27T05:37:16;2.30;99.90
47521;DHT22;32291;52.010;4.446;2024-01-27T05:38:23;2.30;99.90
47521;DHT22;32291;52.010;4.446;2024-01-27T05:39:32;2.30;99.90
47521;DHT22;32291;52.010;4.446;2024-01-27T05:40:40;2.30;99.90
47521;DHT22;32291;52.010;4.446;2024-01-27T05:41:47;2.30;99.90
47521;DHT22;32291;52.010;4.446;2024-01-27T05:42:54;2.30;99.90
47521;DHT22;32291;52.010;4.446;2024-01-27T05:44:01;2.20;99.90
47521;DHT22;32291;52.010;4.446;2024-01-27T05:45:08;2.20;99.90
47521;DHT22;32291;52.010;4.446;2024-01-27T05:46:20;2.20;99.90
47521;DHT22;32291;52.010;4.446;2024-01-27T05:47:26;2.10;99.90
47521;DHT22;32291;52.010;4.446;2024-01-27T05:48:28;2.20;99.90
47521;DHT22;32291;52.010;4.446;2024-01-27T05:49:36;2.20;99.90
47521;DHT22;32291;52.010;4.446;2024-01-27T05:50:43;2.20;99.90
47521;DHT22;32291;52.010;4.446;2024-01-27T05:51:50;2.20;99.90
47521;DHT22;32291;52.010;4.446;2024-01-27T05:52:57;2.20;99.90
47521;DHT22;32291;52.010;4.446;2024-01-27T05:54:04;2.20;99.90
47521;DHT22;32291;52.010;4.446;2024-01-27T05:55:06;2.20;99.90
47521;DHT22;32291;52.010;4.446;2024-01-27T05:56:18;2.20;99.90
47521;DHT22;32291;52.010;4.446;2024-01-27T05:57:27;2.30;99.90
47521;DHT22;32291;52.010;4.446;2024-01-27T05:58:34;2.20;99.90
47521;DHT22;32291;52.010;4.446;2024-01-27T05:59:41;2.20;99.90
47521;DHT22;32291;52.010;4.446;2024-01-27T06:00:48;2.20;99.90
47521;DHT22;32291;52.010;4.446;2024-01-27T06:01:55;2.20;99.90
47521;DHT22;32291;52.010;4.446;2024-01-27T06:03:04;2.20;99.90
47521;DHT22;32291;52.010;4.446;2024-01-27T06:04:11;2.20;99.90
47521;DHT22;32291;52.010;4.446;2024-01-27T06:05:21;2.20;99.90
47521;DHT22;32291;52.010;4.446;2024-01-27T06:06:28;2.20;99.90
47521;DHT22;32291;52.010;4.446;2024-01-27T06:07:37;2.20;99.90
47521;DHT22;32291;52.010;4.446;2024-01-27T06:08:46;2.20;99.90
47521;DHT22;32291;52.010;4.446;2024-01-27T06:09:52;2.20;99.90
47521;DHT22;32291;52.010;4.446;2024-01-27T06:10:59;2.20;99.90
47521;DHT22;32291;52.010;4.446;2024-01-27T06:12:01;2.20;99.90
47521;DHT22;32291;52.010;4.446;2024-01-27T06:13:08;2.10;99.90
47521;DHT22;32291;52.010;4.446;2024-01-27T06:14:15;2.10;99.90
47521;DHT22;32291;52.010;4.446;2024-01-27T06:15:22;2.10;99.90
47521;DHT22;32291;52.010;4.446;2024-01-27T06:16:29;2.10;99.90
47521;DHT22;32291;52.010;4.446;2024-01-27T06:17:35;2.10;99.90
47521;DHT22;32291;52.010;4.446;2024-01-27T06:18:45;2.10;99.90
47521;DHT22;32291;52.010;4.446;2024-01-27T06:19:52;2.10;99.90
47521;DHT22;32291;52.010;4.446;2024-01-27T06:20:58;2.10;99.90
47521;DHT22;32291;52.010;4.446;2024-01-27T06:22:05;2.00;99.90
47521;DHT22;32291;52.010;4.446;2024-01-27T06:23:12;2.00;99.90
47521;DHT22;32291;52.010;4.446;2024-01-27T06:24:19;2.00;99.90
47521;DHT22;32291;52.010;4.446;2024-01-27T06:25:26;2.00;99.90
47521;DHT22;32291;52.010;4.446;2024-01-27T06:26:29;2.00;99.90
47521;DHT22;32291;52.010;4.446;2024-01-27T06:27:37;2.00;99.90
47521;DHT22;32291;52.010;4.446;2024-01-27T06:28:44;2.00;99.90
47521;DHT22;32291;52.010;4.446;2024-01-27T06:29:47;2.00;99.90
47521;DHT22;32291;52.010;4.446;2024-01-27T06:30:53;2.10;99.90
47521;DHT22;32291;52.010;4.446;2024-01-27T06:32:00;2.00;99.90
47521;DHT22;32291;52.010;4.446;2024-01-27T06:33:07;2.00;99.90
47521;DHT22;32291;52.010;4.446;2024-01-27T06:34:14;2.00;99.90
47521;DHT22;32291;52.010;4.446;2024-01-27T06:35:21;2.10;99.90
47521;DHT22;32291;52.010;4.446;2024-01-27T06:36:28;2.00;99.90
47521;DHT22;32291;52.010;4.446;2024-01-27T06:37:35;2.00;99.90
47521;DHT22;32291;52.010;4.446;2024-01-27T06:38:42;2.00;99.90
47521;DHT22;32291;52.010;4.446;2024-01-27T06:39:49;2.00;99.90
47521;DHT22;32291;52.010;4.446;2024-01-27T06:40:56;1.90;99.90
47521;DHT22;32291;52.010;4.446;2024-01-27T06:42:03;1.90;99.90
47521;DHT22;32291;52.010;4.446;2024-01-27T06:43:12;1.90;99.90
47521;DHT22;32291;52.010;4.446;2024-01-27T06:44:19;1.90;99.90
47521;DHT22;32291;52.010;4.446;2024-01-27T06:45:26;1.80;99.90
47521;DHT22;32291;52.010;4.446;2024-01-27T06:46:33;1.80;99.90
47521;DHT22;32291;52.010;4.446;2024-01-27T06:47:35;1.90;99.90
47521;DHT22;32291;52.010;4.446;2024-01-27T06:48:42;1.80;99.90
47521;DHT22;32291;52.010;4.446;2024-01-27T06:49:49;1.70;99.90
47521;DHT22;32291;52.010;4.446;2024-01-27T06:50:52;1.80;99.90
47521;DHT22;32291;52.010;4.446;2024-01-27T06:51:59;1.80;99.90
47521;DHT22;32291;52.010;4.446;2024-01-27T06:53:06;1.90;99.90
47521;DHT22;32291;52.010;4.446;2024-01-27T06:54:14;1.80;99.90
47521;DHT22;32291;52.010;4.446;2024-01-27T06:55:21;1.80;99.90
47521;DHT22;32291;52.010;4.446;2024-01-27T06:56:28;1.80;99.90
47521;DHT22;32291;52.010;4.446;2024-01-27T06:57:30;1.90;99.90
47521;DHT22;32291;52.010;4.446;2024-01-27T06:58:37;1.80;99.90
47521;DHT22;32291;52.010;4.446;2024-01-27T06:59:50;1.80;99.90
47521;DHT22;32291;52.010;4.446;2024-01-27T07:00:58;1.80;99.90
47521;DHT22;32291;52.010;4.446;2024-01-27T07:02:06;1.80;99.90
47521;DHT22;32291;52.010;4.446;2024-01-27T07:03:14;1.80;99.90
47521;DHT22;32291;52.010;4.446;2024-01-27T07:04:16;1.90;99.90
47521;DHT22;32291;52.010;4.446;2024-01-27T07:05:23;1.80;99.90